sensor_id;sensor_type;location;lat;lon;timestamp;P1;durP1;ratioP1;P2;durP2;ratioP2
18820;SDS011;9539;59.332;18.034;2024-02-23T00:01:16;48.97;;;22.05;;
18820;SDS011;9539;59.332;18.034;2024-02-23T00:03:38;42.80;;;19.15;;
18820;SDS011;9539;59.332;18.034;2024-02-23T00:06:00;48.22;;;20.58;;
18820;SDS011;9539;59.332;18.034;2024-02-23T00:08:21;52.03;;;21.40;;
18820;SDS011;9539;59.332;18.034;2024-02-23T00:10:43;50.45;;;23.48;;
18820;SDS011;9539;59.332;18.034;2024-02-23T00:13:05;50.00;;;20.42;;
18820;SDS011;9539;59.332;18.034;2024-02-23T00:15:26;34.92;;;14.52;;
18820;SDS011;9539;59.332;18.034;2024-02-23T00:17:49;46.13;;;20.40;;
18820;SDS011;9539;59.332;18.034;2024-02-23T00:20:11;50.03;;;19.25;;
18820;SDS011;9539;59.332;18.034;2024-02-23T00:22:32;52.95;;;20.17;;
18820;SDS011;9539;59.332;18.034;2024-02-23T00:24:54;63.25;;;25.45;;
18820;SDS011;9539;59.332;18.034;2024-02-23T00:27:16;65.57;;;24.75;;
18820;SDS011;9539;59.332;18.034;2024-02-23T00:29:57;38.72;;;15.10;;
18820;SDS011;9539;59.332;18.034;2024-02-23T00:32:19;62.40;;;25.23;;
18820;SDS011;9539;59.332;18.034;2024-02-23T00:34:42;56.22;;;22.08;;
18820;SDS011;9539;59.332;18.034;2024-02-23T00:37:04;71.03;;;24.83;;
18820;SDS011;9539;59.332;18.034;2024-02-23T00:39:28;66.63;;;25.35;;
18820;SDS011;9539;59.332;18.034;2024-02-23T00:41:49;76.20;;;27.35;;
18820;SDS011;9539;59.332;18.034;2024-02-23T00:44:11;58.28;;;23.70;;
18820;SDS011;9539;59.332;18.034;2024-02-23T00:46:33;75.53;;;28.58;;
18820;SDS011;9539;59.332;18.034;2024-02-23T00:48:55;78.90;;;28.75;;
18820;SDS011;9539;59.332;18.034;2024-02-23T00:51:18;76.82;;;27.23;;
18820;SDS011;9539;59.332;18.034;2024-02-23T00:53:40;71.90;;;25.88;;
18820;SDS011;9539;59.332;18.034;2024-02-23T00:56:01;72.80;;;27.73;;
18820;SDS011;9539;59.332;18.034;2024-02-23T00:58:23;62.83;;;23.50;;
18820;SDS011;9539;59.332;18.034;2024-02-23T01:00:44;73.55;;;25.80;;
18820;SDS011;9539;59.332;18.034;2024-02-23T01:03:06;67.45;;;24.75;;
18820;SDS011;9539;59.332;18.034;2024-02-23T01:05:28;72.07;;;27.80;;
18820;SDS011;9539;59.332;18.034;2024-02-23T01:07:51;65.30;;;21.85;;
18820;SDS011;9539;59.332;18.034;2024-02-23T01:10:12;46.58;;;19.05;;
18820;SDS011;9539;59.332;18.034;2024-02-23T01:12:35;92.13;;;28.25;;
18820;SDS011;9539;59.332;18.034;2024-02-23T01:14:56;76.80;;;24.98;;
18820;SDS011;9539;59.332;18.034;2024-02-23T01:17:18;75.90;;;27.17;;
18820;SDS011;9539;59.332;18.034;2024-02-23T01:19:40;41.15;;;15.93;;
18820;SDS011;9539;59.332;18.034;2024-02-23T01:22:02;67.88;;;25.13;;
18820;SDS011;9539;59.332;18.034;2024-02-23T01:24:25;67.43;;;23.85;;
18820;SDS011;9539;59.332;18.034;2024-02-23T01:26:47;56.17;;;21.08;;
18820;SDS011;9539;59.332;18.034;2024-02-23T01:29:11;78.70;;;26.13;;
18820;SDS011;9539;59.332;18.034;2024-02-23T01:31:33;62.85;;;25.85;;
18820;SDS011;9539;59.332;18.034;2024-02-23T01:33:55;57.88;;;24.10;;
18820;SDS011;9539;59.332;18.034;2024-02-23T01:36:17;63.20;;;26.20;;
18820;SDS011;9539;59.332;18.034;2024-02-23T01:38:39;51.15;;;20.98;;
18820;SDS011;9539;59.332;18.034;2024-02-23T01:41:04;55.00;;;22.58;;
18820;SDS011;9539;59.332;18.034;2024-02-23T01:43:28;48.55;;;20.75;;
18820;SDS011;9539;59.332;18.034;2024-02-23T01:45:51;58.55;;;23.08;;
18820;SDS011;9539;59.332;18.034;2024-02-23T01:48:12;43.22;;;18.05;;
18820;SDS011;9539;59.332;18.034;2024-02-23T01:50:34;51.55;;;20.95;;
18820;SDS011;9539;59.332;18.034;2024-02-23T01:52:58;28.75;;;13.48;;
18820;SDS011;9539;59.332;18.034;2024-02-23T01:55:21;49.67;;;23.27;;
18820;SDS011;9539;59.332;18.034;2024-02-23T01:57:45;59.15;;;26.67;;
18820;SDS011;9539;59.332;18.034;2024-02-23T02:00:07;56.85;;;23.15;;
18820;SDS011;9539;59.332;18.034;2024-02-23T02:02:30;56.72;;;23.63;;
18820;SDS011;9539;59.332;18.034;2024-02-23T02:05:10;70.40;;;24.75;;
18820;SDS011;9539;59.332;18.034;2024-02-23T02:07:32;70.70;;;27.77;;
18820;SDS011;9539;59.332;18.034;2024-02-23T02:09:53;64.13;;;25.95;;
18820;SDS011;9539;59.332;18.034;2024-02-23T02:12:15;70.13;;;25.23;;
18820;SDS011;9539;59.332;18.034;2024-02-23T02:14:36;60.45;;;26.65;;
18820;SDS011;9539;59.332;18.034;2024-02-23T02:16:58;61.58;;;27.33;;
18820;SDS011;9539;59.332;18.034;2024-02-23T02:19:19;36.20;;;14.80;;
18820;SDS011;9539;59.332;18.034;2024-02-23T02:21:42;73.70;;;27.50;;
18820;SDS011;9539;59.332;18.034;2024-02-23T02:24:06;36.70;;;16.83;;
18820;SDS011;9539;59.332;18.034;2024-02-23T02:26:28;55.75;;;21.15;;
18820;SDS011;9539;59.332;18.034;2024-02-23T02:28:49;46.95;;;19.70;;
18820;SDS011;9539;59.332;18.034;2024-02-23T02:31:12;55.83;;;24.30;;
18820;SDS011;9539;59.332;18.034;2024-02-23T02:33:34;51.92;;;20.83;;
18820;SDS011;9539;59.332;18.034;2024-02-23T02:35:55;55.70;;;23.75;;
18820;SDS011;9539;59.332;18.034;2024-02-23T02:38:18;56.65;;;23.05;;
18820;SDS011;9539;59.332;18.034;2024-02-23T02:40:40;60.53;;;24.23;;
18820;SDS011;9539;59.332;18.034;2024-02-23T02:43:02;31.50;;;13.60;;
18820;SDS011;9539;59.332;18.034;2024-02-23T02:45:23;50.92;;;23.17;;
18820;SDS011;9539;59.332;18.034;2024-02-23T02:47:45;54.75;;;23.30;;
18820;SDS011;9539;59.332;18.034;2024-02-23T02:50:07;55.47;;;22.77;;
18820;SDS011;9539;59.332;18.034;2024-02-23T02:52:29;43.72;;;19.85;;
18820;SDS011;9539;59.332;18.034;2024-02-23T02:54:52;40.75;;;17.00;;
18820;SDS011;9539;59.332;18.034;2024-02-23T02:57:14;36.22;;;13.93;;
18820;SDS011;9539;59.332;18.034;2024-02-23T02:59:35;63.35;;;25.58;;
18820;SDS011;9539;59.332;18.034;2024-02-23T03:01:57;51.55;;;20.33;;
18820;SDS011;9539;59.332;18.034;2024-02-23T03:04:18;47.97;;;20.08;;
18820;SDS011;9539;59.332;18.034;2024-02-23T03:06:40;60.88;;;23.73;;
18820;SDS011;9539;59.332;18.034;2024-02-23T03:09:02;67.72;;;25.00;;
18820;SDS011;9539;59.332;18.034;2024-02-23T03:11:25;42.58;;;18.73;;
18820;SDS011;9539;59.332;18.034;2024-02-23T03:13:47;48.50;;;18.48;;
18820;SDS011;9539;59.332;18.034;2024-02-23T03:16:14;46.00;;;20.95;;
18820;SDS011;9539;59.332;18.034;2024-02-23T03:18:35;46.47;;;18.50;;
18820;SDS011;9539;59.332;18.034;2024-02-23T03:20:57;33.38;;;14.23;;
18820;SDS011;9539;59.332;18.034;2024-02-23T03:23:18;59.75;;;23.02;;
18820;SDS011;9539;59.332;18.034;2024-02-23T03:25:40;45.83;;;19.67;;
18820;SDS011;9539;59.332;18.034;2024-02-23T03:28:03;40.70;;;17.42;;
18820;SDS011;9539;59.332;18.034;2024-02-23T03:30:25;40.35;;;18.08;;
18820;SDS011;9539;59.332;18.034;2024-02-23T03:32:46;42.42;;;17.92;;
18820;SDS011;9539;59.332;18.034;2024-02-23T03:35:08;35.42;;;17.45;;
18820;SDS011;9539;59.332;18.034;2024-02-23T03:37:30;33.55;;;16.25;;
18820;SDS011;9539;59.332;18.034;2024-02-23T03:39:51;43.05;;;20.27;;
18820;SDS011;9539;59.332;18.034;2024-02-23T03:42:13;35.75;;;16.45;;
18820;SDS011;9539;59.332;18.034;2024-02-23T03:44:36;34.20;;;16.20;;
18820;SDS011;9539;59.332;18.034;2024-02-23T03:46:57;48.33;;;20.88;;
18820;SDS011;9539;59.332;18.034;2024-02-23T03:49:19;46.30;;;22.77;;
18820;SDS011;9539;59.332;18.034;2024-02-23T03:51:41;42.55;;;18.83;;
18820;SDS011;9539;59.332;18.034;2024-02-23T03:54:02;52.20;;;23.67;;
18820;SDS011;9539;59.332;18.034;2024-02-23T03:56:24;45.20;;;18.15;;
18820;SDS011;9539;59.332;18.034;2024-02-23T03:58:46;52.45;;;19.60;;
18820;SDS011;9539;59.332;18.034;2024-02-23T04:01:09;33.70;;;14.30;;
18820;SDS011;9539;59.332;18.034;2024-02-23T04:03:30;66.22;;;24.75;;
18820;SDS011;9539;59.332;18.034;2024-02-23T04:05:52;49.00;;;20.05;;
18820;SDS011;9539;59.332;18.034;2024-02-23T04:08:13;82.05;;;30.30;;
18820;SDS011;9539;59.332;18.034;2024-02-23T04:10:35;38.70;;;15.30;;
18820;SDS011;9539;59.332;18.034;2024-02-23T04:12:57;68.53;;;22.60;;
18820;SDS011;9539;59.332;18.034;2024-02-23T04:15:19;72.13;;;27.05;;
18820;SDS011;9539;59.332;18.034;2024-02-23T04:17:42;66.80;;;25.80;;
18820;SDS011;9539;59.332;18.034;2024-02-23T04:20:05;64.30;;;26.05;;
18820;SDS011;9539;59.332;18.034;2024-02-23T04:22:27;47.60;;;20.08;;
18820;SDS011;9539;59.332;18.034;2024-02-23T04:24:48;54.47;;;20.40;;
18820;SDS011;9539;59.332;18.034;2024-02-23T04:27:10;51.38;;;21.98;;
18820;SDS011;9539;59.332;18.034;2024-02-23T04:29:32;36.60;;;14.10;;
18820;SDS011;9539;59.332;18.034;2024-02-23T04:31:53;57.75;;;20.50;;
18820;SDS011;9539;59.332;18.034;2024-02-23T04:34:17;53.58;;;20.05;;
18820;SDS011;9539;59.332;18.034;2024-02-23T04:36:38;55.75;;;19.90;;
18820;SDS011;9539;59.332;18.034;2024-02-23T04:39:00;56.45;;;20.67;;
18820;SDS011;9539;59.332;18.034;2024-02-23T04:41:21;35.20;;;13.27;;
18820;SDS011;9539;59.332;18.034;2024-02-23T04:43:43;52.47;;;21.00;;
18820;SDS011;9539;59.332;18.034;2024-02-23T04:46:05;54.80;;;19.92;;
18820;SDS011;9539;59.332;18.034;2024-02-23T04:48:27;39.55;;;16.67;;
18820;SDS011;9539;59.332;18.034;2024-02-23T04:50:52;50.40;;;20.17;;
18820;SDS011;9539;59.332;18.034;2024-02-23T04:53:14;32.45;;;14.35;;
18820;SDS011;9539;59.332;18.034;2024-02-23T04:55:35;32.72;;;14.55;;
18820;SDS011;9539;59.332;18.034;2024-02-23T04:57:57;20.63;;;10.55;;
18820;SDS011;9539;59.332;18.034;2024-02-23T05:00:18;24.80;;;14.00;;
18820;SDS011;9539;59.332;18.034;2024-02-23T05:02:40;24.27;;;12.00;;
18820;SDS011;9539;59.332;18.034;2024-02-23T05:05:02;28.08;;;14.00;;
18820;SDS011;9539;59.332;18.034;2024-02-23T05:07:26;28.50;;;14.90;;
18820;SDS011;9539;59.332;18.034;2024-02-23T05:09:47;27.63;;;15.07;;
18820;SDS011;9539;59.332;18.034;2024-02-23T05:12:09;28.58;;;14.55;;
18820;SDS011;9539;59.332;18.034;2024-02-23T05:14:30;23.20;;;10.63;;
18820;SDS011;9539;59.332;18.034;2024-02-23T05:16:52;13.85;;;7.10;;
18820;SDS011;9539;59.332;18.034;2024-02-23T05:19:13;13.68;;;7.10;;
18820;SDS011;9539;59.332;18.034;2024-02-23T05:21:34;22.35;;;11.18;;
18820;SDS011;9539;59.332;18.034;2024-02-23T05:23:57;46.17;;;20.60;;
18820;SDS011;9539;59.332;18.034;2024-02-23T05:26:18;34.20;;;15.27;;
18820;SDS011;9539;59.332;18.034;2024-02-23T05:28:40;38.58;;;14.95;;
18820;SDS011;9539;59.332;18.034;2024-02-23T05:31:02;38.95;;;15.45;;
18820;SDS011;9539;59.332;18.034;2024-02-23T05:33:24;44.38;;;17.83;;
18820;SDS011;9539;59.332;18.034;2024-02-23T05:35:46;48.58;;;20.48;;
18820;SDS011;9539;59.332;18.034;2024-02-23T05:38:08;52.72;;;17.10;;
18820;SDS011;9539;59.332;18.034;2024-02-23T05:40:31;37.47;;;16.67;;
18820;SDS011;9539;59.332;18.034;2024-02-23T05:42:53;47.35;;;16.63;;
18820;SDS011;9539;59.332;18.034;2024-02-23T05:45:15;58.65;;;19.08;;
18820;SDS011;9539;59.332;18.034;2024-02-23T05:47:37;52.20;;;19.58;;
18820;SDS011;9539;59.332;18.034;2024-02-23T05:49:59;66.28;;;19.75;;
18820;SDS011;9539;59.332;18.034;2024-02-23T05:52:20;78.80;;;21.17;;
18820;SDS011;9539;59.332;18.034;2024-02-23T05:54:42;68.72;;;22.02;;
18820;SDS011;9539;59.332;18.034;2024-02-23T05:57:06;52.80;;;18.98;;
18820;SDS011;9539;59.332;18.034;2024-02-23T05:59:27;58.78;;;20.95;;
18820;SDS011;9539;59.332;18.034;2024-02-23T06:01:49;43.22;;;14.93;;
18820;SDS011;9539;59.332;18.034;2024-02-23T06:04:12;45.40;;;17.02;;
18820;SDS011;9539;59.332;18.034;2024-02-23T06:06:33;55.10;;;17.73;;
18820;SDS011;9539;59.332;18.034;2024-02-23T06:08:55;57.30;;;19.65;;
18820;SDS011;9539;59.332;18.034;2024-02-23T06:11:17;58.63;;;21.63;;
18820;SDS011;9539;59.332;18.034;2024-02-23T06:13:40;50.53;;;18.70;;
18820;SDS011;9539;59.332;18.034;2024-02-23T06:16:01;38.70;;;15.20;;
18820;SDS011;9539;59.332;18.034;2024-02-23T06:18:23;56.55;;;21.58;;
18820;SDS011;9539;59.332;18.034;2024-02-23T06:20:45;51.10;;;18.38;;
18820;SDS011;9539;59.332;18.034;2024-02-23T06:23:06;39.80;;;16.27;;
18820;SDS011;9539;59.332;18.034;2024-02-23T06:25:28;31.52;;;13.45;;
18820;SDS011;9539;59.332;18.034;2024-02-23T06:27:49;45.35;;;18.75;;
18820;SDS011;9539;59.332;18.034;2024-02-23T06:30:13;53.63;;;19.67;;
18820;SDS011;9539;59.332;18.034;2024-02-23T06:32:34;51.88;;;20.70;;
18820;SDS011;9539;59.332;18.034;2024-02-23T06:34:56;60.38;;;20.42;;
18820;SDS011;9539;59.332;18.034;2024-02-23T06:37:17;51.78;;;18.85;;
18820;SDS011;9539;59.332;18.034;2024-02-23T06:39:39;48.08;;;17.38;;
18820;SDS011;9539;59.332;18.034;2024-02-23T06:42:01;50.03;;;23.38;;
18820;SDS011;9539;59.332;18.034;2024-02-23T06:44:24;50.45;;;18.25;;
18820;SDS011;9539;59.332;18.034;2024-02-23T06:46:47;54.08;;;21.90;;
18820;SDS011;9539;59.332;18.034;2024-02-23T06:49:09;30.48;;;13.50;;
18820;SDS011;9539;59.332;18.034;2024-02-23T06:51:31;55.67;;;22.98;;
18820;SDS011;9539;59.332;18.034;2024-02-23T06:53:52;36.30;;;16.20;;
18820;SDS011;9539;59.332;18.034;2024-02-23T06:56:14;56.35;;;22.55;;
18820;SDS011;9539;59.332;18.034;2024-02-23T06:58:35;52.25;;;23.17;;
18820;SDS011;9539;59.332;18.034;2024-02-23T07:00:57;56.38;;;21.75;;
18820;SDS011;9539;59.332;18.034;2024-02-23T07:03:21;50.80;;;19.92;;
18820;SDS011;9539;59.332;18.034;2024-02-23T07:05:43;53.72;;;20.55;;
18820;SDS011;9539;59.332;18.034;2024-02-23T07:08:05;47.70;;;21.90;;
18820;SDS011;9539;59.332;18.034;2024-02-23T07:10:27;48.38;;;23.25;;
18820;SDS011;9539;59.332;18.034;2024-02-23T07:12:48;49.65;;;21.08;;
18820;SDS011;9539;59.332;18.034;2024-02-23T07:15:13;52.00;;;24.55;;
18820;SDS011;9539;59.332;18.034;2024-02-23T07:17:35;48.13;;;20.25;;
18820;SDS011;9539;59.332;18.034;2024-02-23T07:19:58;45.33;;;21.70;;
18820;SDS011;9539;59.332;18.034;2024-02-23T07:22:25;44.97;;;20.70;;
18820;SDS011;9539;59.332;18.034;2024-02-23T07:24:47;37.58;;;19.95;;
18820;SDS011;9539;59.332;18.034;2024-02-23T07:27:09;39.72;;;19.50;;
18820;SDS011;9539;59.332;18.034;2024-02-23T07:29:31;39.47;;;20.65;;
18820;SDS011;9539;59.332;18.034;2024-02-23T07:31:52;39.85;;;19.75;;
18820;SDS011;9539;59.332;18.034;2024-02-23T07:34:14;33.33;;;17.33;;
18820;SDS011;9539;59.332;18.034;2024-02-23T07:36:37;20.33;;;9.35;;
18820;SDS011;9539;59.332;18.034;2024-02-23T07:38:59;26.88;;;16.60;;
18820;SDS011;9539;59.332;18.034;2024-02-23T07:41:21;19.02;;;9.48;;
18820;SDS011;9539;59.332;18.034;2024-02-23T07:43:42;18.55;;;9.18;;
18820;SDS011;9539;59.332;18.034;2024-02-23T07:46:04;22.38;;;12.38;;
18820;SDS011;9539;59.332;18.034;2024-02-23T07:48:28;21.45;;;13.98;;
18820;SDS011;9539;59.332;18.034;2024-02-23T07:50:50;21.02;;;12.02;;
18820;SDS011;9539;59.332;18.034;2024-02-23T07:53:13;12.57;;;7.93;;
18820;SDS011;9539;59.332;18.034;2024-02-23T07:55:35;24.23;;;13.20;;
18820;SDS011;9539;59.332;18.034;2024-02-23T07:57:56;19.85;;;11.45;;
18820;SDS011;9539;59.332;18.034;2024-02-23T08:00:21;21.55;;;12.32;;
18820;SDS011;9539;59.332;18.034;2024-02-23T08:02:42;20.45;;;12.05;;
18820;SDS011;9539;59.332;18.034;2024-02-23T08:05:04;22.10;;;13.48;;
18820;SDS011;9539;59.332;18.034;2024-02-23T08:07:26;23.25;;;13.65;;
18820;SDS011;9539;59.332;18.034;2024-02-23T08:09:52;25.85;;;15.05;;
18820;SDS011;9539;59.332;18.034;2024-02-23T08:12:13;17.38;;;10.07;;
18820;SDS011;9539;59.332;18.034;2024-02-23T08:14:36;16.10;;;9.00;;
18820;SDS011;9539;59.332;18.034;2024-02-23T08:16:57;17.63;;;9.15;;
18820;SDS011;9539;59.332;18.034;2024-02-23T08:19:19;17.35;;;10.70;;
18820;SDS011;9539;59.332;18.034;2024-02-23T08:21:41;25.10;;;13.73;;
18820;SDS011;9539;59.332;18.034;2024-02-23T08:24:04;33.05;;;17.75;;
18820;SDS011;9539;59.332;18.034;2024-02-23T08:26:27;16.33;;;8.95;;
18820;SDS011;9539;59.332;18.034;2024-02-23T08:28:48;26.35;;;13.80;;
18820;SDS011;9539;59.332;18.034;2024-02-23T08:31:10;18.40;;;11.23;;
18820;SDS011;9539;59.332;18.034;2024-02-23T08:33:32;20.73;;;12.68;;
18820;SDS011;9539;59.332;18.034;2024-02-23T08:35:53;28.60;;;14.30;;
18820;SDS011;9539;59.332;18.034;2024-02-23T08:38:15;27.73;;;15.48;;
18820;SDS011;9539;59.332;18.034;2024-02-23T08:40:38;30.88;;;14.30;;
18820;SDS011;9539;59.332;18.034;2024-02-23T08:43:01;24.38;;;12.60;;
18820;SDS011;9539;59.332;18.034;2024-02-23T08:45:23;26.38;;;12.20;;
18820;SDS011;9539;59.332;18.034;2024-02-23T08:47:45;26.25;;;15.13;;
18820;SDS011;9539;59.332;18.034;2024-02-23T08:50:07;16.83;;;8.80;;
18820;SDS011;9539;59.332;18.034;2024-02-23T08:52:29;20.98;;;12.18;;
18820;SDS011;9539;59.332;18.034;2024-02-23T08:54:50;15.35;;;10.15;;
18820;SDS011;9539;59.332;18.034;2024-02-23T08:57:12;17.85;;;10.45;;
18820;SDS011;9539;59.332;18.034;2024-02-23T08:59:39;13.82;;;8.63;;
18820;SDS011;9539;59.332;18.034;2024-02-23T09:02:00;10.52;;;7.50;;
18820;SDS011;9539;59.332;18.034;2024-02-23T09:04:22;6.82;;;4.47;;
18820;SDS011;9539;59.332;18.034;2024-02-23T09:06:44;18.55;;;11.60;;
18820;SDS011;9539;59.332;18.034;2024-02-23T09:09:06;13.38;;;6.90;;
18820;SDS011;9539;59.332;18.034;2024-02-23T09:11:28;19.45;;;10.25;;
18820;SDS011;9539;59.332;18.034;2024-02-23T09:13:50;18.67;;;12.77;;
18820;SDS011;9539;59.332;18.034;2024-02-23T09:16:13;12.25;;;6.68;;
18820;SDS011;9539;59.332;18.034;2024-02-23T09:18:35;21.48;;;13.63;;
18820;SDS011;9539;59.332;18.034;2024-02-23T09:20:56;20.20;;;12.77;;
18820;SDS011;9539;59.332;18.034;2024-02-23T09:23:18;22.00;;;14.02;;
18820;SDS011;9539;59.332;18.034;2024-02-23T09:25:39;22.45;;;14.45;;
18820;SDS011;9539;59.332;18.034;2024-02-23T09:28:01;24.73;;;13.65;;
18820;SDS011;9539;59.332;18.034;2024-02-23T09:30:23;24.77;;;15.63;;
18820;SDS011;9539;59.332;18.034;2024-02-23T09:32:46;29.35;;;14.82;;
18820;SDS011;9539;59.332;18.034;2024-02-23T09:35:08;20.70;;;12.88;;
18820;SDS011;9539;59.332;18.034;2024-02-23T09:37:30;22.17;;;14.07;;
18820;SDS011;9539;59.332;18.034;2024-02-23T09:39:52;21.38;;;13.07;;
18820;SDS011;9539;59.332;18.034;2024-02-23T09:42:13;25.70;;;14.98;;
18820;SDS011;9539;59.332;18.034;2024-02-23T09:44:35;25.83;;;15.02;;
18820;SDS011;9539;59.332;18.034;2024-02-23T09:46:58;24.20;;;15.32;;
18820;SDS011;9539;59.332;18.034;2024-02-23T09:49:21;27.15;;;15.30;;
18820;SDS011;9539;59.332;18.034;2024-02-23T09:51:43;23.20;;;13.27;;
18820;SDS011;9539;59.332;18.034;2024-02-23T09:54:05;19.65;;;12.98;;
18820;SDS011;9539;59.332;18.034;2024-02-23T09:56:27;16.30;;;11.27;;
18820;SDS011;9539;59.332;18.034;2024-02-23T09:58:49;17.33;;;11.07;;
18820;SDS011;9539;59.332;18.034;2024-02-23T10:01:11;12.40;;;10.07;;
18820;SDS011;9539;59.332;18.034;2024-02-23T10:03:33;13.02;;;9.00;;
18820;SDS011;9539;59.332;18.034;2024-02-23T10:05:56;14.20;;;8.82;;
18820;SDS011;9539;59.332;18.034;2024-02-23T10:08:18;10.93;;;8.02;;
18820;SDS011;9539;59.332;18.034;2024-02-23T10:10:39;10.15;;;6.97;;
18820;SDS011;9539;59.332;18.034;2024-02-23T10:13:01;12.77;;;7.03;;
18820;SDS011;9539;59.332;18.034;2024-02-23T10:15:24;10.50;;;6.03;;
18820;SDS011;9539;59.332;18.034;2024-02-23T10:17:46;9.98;;;6.35;;
18820;SDS011;9539;59.332;18.034;2024-02-23T10:20:09;9.70;;;5.78;;
18820;SDS011;9539;59.332;18.034;2024-02-23T10:22:32;11.48;;;4.97;;
18820;SDS011;9539;59.332;18.034;2024-02-23T10:24:55;6.68;;;4.32;;
18820;SDS011;9539;59.332;18.034;2024-02-23T10:27:17;5.65;;;4.60;;
18820;SDS011;9539;59.332;18.034;2024-02-23T10:29:39;6.60;;;4.18;;
18820;SDS011;9539;59.332;18.034;2024-02-23T10:32:01;5.55;;;3.80;;
18820;SDS011;9539;59.332;18.034;2024-02-23T10:34:23;6.95;;;3.78;;
18820;SDS011;9539;59.332;18.034;2024-02-23T10:36:45;8.95;;;3.90;;
18820;SDS011;9539;59.332;18.034;2024-02-23T10:39:09;6.55;;;3.40;;
18820;SDS011;9539;59.332;18.034;2024-02-23T10:41:31;4.88;;;3.33;;
18820;SDS011;9539;59.332;18.034;2024-02-23T10:43:53;4.78;;;3.20;;
18820;SDS011;9539;59.332;18.034;2024-02-23T10:46:19;7.05;;;3.08;;
18820;SDS011;9539;59.332;18.034;2024-02-23T10:48:41;4.22;;;2.45;;
18820;SDS011;9539;59.332;18.034;2024-02-23T10:51:03;4.68;;;2.30;;
18820;SDS011;9539;59.332;18.034;2024-02-23T10:53:25;4.05;;;2.40;;
18820;SDS011;9539;59.332;18.034;2024-02-23T10:55:50;5.18;;;2.20;;
18820;SDS011;9539;59.332;18.034;2024-02-23T10:58:13;4.97;;;1.90;;
18820;SDS011;9539;59.332;18.034;2024-02-23T11:00:36;3.60;;;2.15;;
18820;SDS011;9539;59.332;18.034;2024-02-23T11:02:57;2.33;;;1.45;;
18820;SDS011;9539;59.332;18.034;2024-02-23T11:05:19;2.53;;;1.65;;
18820;SDS011;9539;59.332;18.034;2024-02-23T11:07:41;2.13;;;1.48;;
18820;SDS011;9539;59.332;18.034;2024-02-23T11:10:04;3.72;;;1.90;;
18820;SDS011;9539;59.332;18.034;2024-02-23T11:12:28;2.95;;;1.77;;
18820;SDS011;9539;59.332;18.034;2024-02-23T11:14:50;2.75;;;1.80;;
18820;SDS011;9539;59.332;18.034;2024-02-23T11:17:17;3.85;;;1.65;;
18820;SDS011;9539;59.332;18.034;2024-02-23T11:19:39;3.95;;;1.67;;
18820;SDS011;9539;59.332;18.034;2024-02-23T11:22:01;2.95;;;1.85;;
18820;SDS011;9539;59.332;18.034;2024-02-23T11:24:25;2.67;;;1.30;;
18820;SDS011;9539;59.332;18.034;2024-02-23T11:26:47;2.95;;;1.38;;
18820;SDS011;9539;59.332;18.034;2024-02-23T11:29:11;2.63;;;1.20;;
18820;SDS011;9539;59.332;18.034;2024-02-23T11:31:35;4.55;;;1.30;;
18820;SDS011;9539;59.332;18.034;2024-02-23T11:33:56;4.38;;;1.30;;
18820;SDS011;9539;59.332;18.034;2024-02-23T11:36:22;2.88;;;1.30;;
18820;SDS011;9539;59.332;18.034;2024-02-23T11:38:43;3.05;;;1.20;;
18820;SDS011;9539;59.332;18.034;2024-02-23T11:41:05;1.98;;;1.10;;
18820;SDS011;9539;59.332;18.034;2024-02-23T11:43:27;2.15;;;1.27;;
18820;SDS011;9539;59.332;18.034;2024-02-23T11:45:50;3.08;;;1.20;;
18820;SDS011;9539;59.332;18.034;2024-02-23T11:48:12;2.75;;;1.00;;
18820;SDS011;9539;59.332;18.034;2024-02-23T11:50:33;1.60;;;1.00;;
18820;SDS011;9539;59.332;18.034;2024-02-23T11:52:55;3.30;;;1.50;;
18820;SDS011;9539;59.332;18.034;2024-02-23T11:55:17;3.47;;;1.58;;
18820;SDS011;9539;59.332;18.034;2024-02-23T11:57:42;4.57;;;1.33;;
18820;SDS011;9539;59.332;18.034;2024-02-23T12:00:04;4.15;;;1.35;;
18820;SDS011;9539;59.332;18.034;2024-02-23T12:02:28;1.95;;;1.30;;
18820;SDS011;9539;59.332;18.034;2024-02-23T12:04:50;4.22;;;1.30;;
18820;SDS011;9539;59.332;18.034;2024-02-23T12:07:11;4.07;;;1.20;;
18820;SDS011;9539;59.332;18.034;2024-02-23T12:09:33;4.22;;;1.40;;
18820;SDS011;9539;59.332;18.034;2024-02-23T12:11:55;3.13;;;1.52;;
18820;SDS011;9539;59.332;18.034;2024-02-23T12:14:16;2.30;;;1.30;;
18820;SDS011;9539;59.332;18.034;2024-02-23T12:16:39;3.22;;;1.20;;
18820;SDS011;9539;59.332;18.034;2024-02-23T12:19:02;5.15;;;1.25;;
18820;SDS011;9539;59.332;18.034;2024-02-23T12:21:24;4.10;;;1.30;;
18820;SDS011;9539;59.332;18.034;2024-02-23T12:23:48;3.13;;;1.38;;
18820;SDS011;9539;59.332;18.034;2024-02-23T12:26:10;2.95;;;1.40;;
18820;SDS011;9539;59.332;18.034;2024-02-23T12:28:33;5.03;;;1.35;;
18820;SDS011;9539;59.332;18.034;2024-02-23T12:30:58;5.47;;;1.75;;
18820;SDS011;9539;59.332;18.034;2024-02-23T12:33:20;4.82;;;1.67;;
18820;SDS011;9539;59.332;18.034;2024-02-23T12:35:43;4.47;;;1.40;;
18820;SDS011;9539;59.332;18.034;2024-02-23T12:38:05;3.92;;;1.10;;
18820;SDS011;9539;59.332;18.034;2024-02-23T12:40:27;4.07;;;1.35;;
18820;SDS011;9539;59.332;18.034;2024-02-23T12:42:49;2.38;;;1.15;;
18820;SDS011;9539;59.332;18.034;2024-02-23T12:45:11;4.50;;;1.20;;
18820;SDS011;9539;59.332;18.034;2024-02-23T12:47:33;5.07;;;1.63;;
18820;SDS011;9539;59.332;18.034;2024-02-23T12:49:54;4.07;;;1.40;;
18820;SDS011;9539;59.332;18.034;2024-02-23T12:52:17;4.80;;;1.45;;
18820;SDS011;9539;59.332;18.034;2024-02-23T12:54:39;3.22;;;1.35;;
18820;SDS011;9539;59.332;18.034;2024-02-23T12:57:02;9.18;;;1.65;;
18820;SDS011;9539;59.332;18.034;2024-02-23T12:59:24;6.68;;;1.60;;
18820;SDS011;9539;59.332;18.034;2024-02-23T13:01:45;6.40;;;1.70;;
18820;SDS011;9539;59.332;18.034;2024-02-23T13:04:07;4.88;;;1.40;;
18820;SDS011;9539;59.332;18.034;2024-02-23T13:06:30;4.72;;;1.50;;
18820;SDS011;9539;59.332;18.034;2024-02-23T13:08:53;6.15;;;1.50;;
18820;SDS011;9539;59.332;18.034;2024-02-23T13:11:15;5.85;;;1.40;;
18820;SDS011;9539;59.332;18.034;2024-02-23T13:13:37;8.80;;;1.88;;
18820;SDS011;9539;59.332;18.034;2024-02-23T13:15:58;3.97;;;1.27;;
18820;SDS011;9539;59.332;18.034;2024-02-23T13:18:20;5.72;;;1.60;;
18820;SDS011;9539;59.332;18.034;2024-02-23T13:20:42;6.07;;;1.60;;
18820;SDS011;9539;59.332;18.034;2024-02-23T13:23:03;4.38;;;1.52;;
18820;SDS011;9539;59.332;18.034;2024-02-23T13:25:28;7.50;;;1.40;;
18820;SDS011;9539;59.332;18.034;2024-02-23T13:27:50;6.93;;;1.88;;
18820;SDS011;9539;59.332;18.034;2024-02-23T13:30:12;6.72;;;1.80;;
18820;SDS011;9539;59.332;18.034;2024-02-23T13:32:34;3.95;;;1.60;;
18820;SDS011;9539;59.332;18.034;2024-02-23T13:34:56;5.82;;;1.35;;
18820;SDS011;9539;59.332;18.034;2024-02-23T13:37:17;9.00;;;1.75;;
18820;SDS011;9539;59.332;18.034;2024-02-23T13:39:39;5.80;;;1.60;;
18820;SDS011;9539;59.332;18.034;2024-02-23T13:42:02;4.53;;;1.55;;
18820;SDS011;9539;59.332;18.034;2024-02-23T13:44:25;4.68;;;1.50;;
18820;SDS011;9539;59.332;18.034;2024-02-23T13:46:47;6.40;;;1.52;;
18820;SDS011;9539;59.332;18.034;2024-02-23T13:49:08;7.93;;;1.60;;
18820;SDS011;9539;59.332;18.034;2024-02-23T13:51:31;5.90;;;1.38;;
18820;SDS011;9539;59.332;18.034;2024-02-23T13:53:53;3.88;;;1.58;;
18820;SDS011;9539;59.332;18.034;2024-02-23T13:56:15;4.38;;;1.20;;
18820;SDS011;9539;59.332;18.034;2024-02-23T13:58:38;3.85;;;1.40;;